Dixon, South Dakota
Current Conditions -  °F | °C
As of 9:53 AM on Monday 24 Nov 2014 (Local Time) from KICR Reporting Station
Clear Clear  
Wind Chill: -13°   Ceiling: Unl
Heat Index: -4°   Visibility: 10mi
Dew Point: -10°   Wind: 22mph
Humidity: 65%   Direction: 310°NW
Pressure: 29.83"   Gusts: 31mph
Location:  43.2419°N, 99.4287°W
Report Text: KICR 241553Z AUTO 31019G27KT 10SM CLR M04/M10 A2983 RMK AO2 PK WND 31027/1545 SLP125 T10441100
Loading
Personal Weather Stations






























Interactive Weather Map New forecast layout! Learn more

10-Day Weather Forecast

Advertisements
Track Severe Weather on mobile